Detalii statie SOPEMA [00001CFB]

Toti senzorii

Date Temperatura solului [C]Precipitatii [mm]Voltaj baterie [mV]Leaf Wetness [Min]HC Air temperature [C]HC Relative humidity [%]Punctul de roua [C]
medieminmaxsumaultimatimpmedieminmaxmediemediemin
2018-02-23 13:00:00 0.4 7148 1.03 0.69 1.23 0 0 0
2018-02-23 14:00:00 0.4 7166 1.18 0.89 1.48 0 0 0
2018-02-23 15:00:00 0.4 7166 1.58 1.12 2.23 0 0 0
2018-02-23 16:00:00 0.6 7108 2.12 1.84 2.52 0 0 0
2018-02-23 17:00:00 0.6 7070 2.25 1.91 2.63 0 0 0
2018-02-23 18:00:00 0.4 6992 1.68 1.55 1.94 0 0 0
2018-02-23 19:00:00 0.2 6972 1.41 1.24 1.52 0 0 0
2018-02-23 20:00:00 0 6962 1.14 0.97 1.29 0 0 0
2018-02-23 21:00:00 0 6942 0.91 0.78 0.97 0 0 0
2018-02-23 22:00:00 0 6962 0.63 0.44 0.79 0 0 0
2018-02-23 23:00:00 0 6922 0.24 0.12 0.42 0 0 0
2018-02-24 00:00:00 0 6914 -0.07 -0.22 0.09 0 0 0
2018-02-24 01:00:00 0 6904 -0.32 -0.51 -0.16 0 0 0
2018-02-24 02:00:00 0 6904 -0.16 -0.28 -0.07 0 0 0
2018-02-24 03:00:00 0 6894 -0.34 -0.5 -0.25 0 0 0
2018-02-24 04:00:00 0 6894 -0.29 -0.41 -0.22 0 0 0
2018-02-24 05:00:00 0 6884 -0.27 -0.34 -0.19 0 0 0
2018-02-24 06:00:00 0 6904 -0.25 -0.36 -0.11 0 0 0
2018-02-24 07:00:00 0 6874 -0.17 -0.21 -0.14 0 0 0
2018-02-24 08:00:00 0 6864 -0.14 -0.22 -0.02 0 0 0
2018-02-24 09:00:00 0 6854 0.12 -0.05 0.22 0 0 0
2018-02-24 10:00:00 0 6854 0.18 0.13 0.24 0 0 0
2018-02-24 11:00:00 0 6844 0.07 0.01 0.12 0 0 0
2018-02-24 12:00:00 0 6854 -0.01 -0.09 0.04 0 0 0
2018-02-24 13:00:00 0 6894 0.07 -0.01 0.21 0 0 0
2018-02-24 14:00:00 0 6874 0.29 0.24 0.37 0 0 0
2018-02-24 15:00:00 0 6894 0.21 0.13 0.27 0 0 0
2018-02-24 16:00:00 0.2 6874 -0.23 -0.42 0.22 0 0 0
2018-02-24 17:00:00 0 6864 -0.59 -0.78 -0.47 0 0 0
2018-02-24 18:00:00 0 6816 -1.1 -1.31 -0.93 0 0 0
2018-02-24 19:00:00 0 6806 -1.66 -2.03 -1.26 0 0 0
2018-02-24 20:00:00 0 6796 -2.51 -2.85 -1.97 0 0 0
2018-02-24 21:00:00 0 6806 -3.18 -3.49 -2.9 0 0 0
2018-02-24 22:00:00 0 6776 -3.67 -3.95 -3.48 0 0 0
2018-02-24 23:00:00 0 6776 -4.04 -4.16 -3.86 0 0 0
2018-02-25 00:00:00 0 6766 -4.11 -4.14 -4.06 0 0 0
2018-02-25 01:00:00 0 6766 -3.97 -4.06 -3.94 0 0 0
2018-02-25 02:00:00 0 6766 -3.95 -4.01 -3.92 0 0 0
2018-02-25 03:00:00 0 6776 -4.06 -4.14 -3.99 0 0 0
2018-02-25 04:00:00 0 6756 -4.32 -4.5 -4.14 0 0 0
2018-02-25 05:00:00 0 6756 -4.8 -5.03 -4.55 0 0 0
2018-02-25 06:00:00 0 6756 -5.38 -5.63 -5.12 0 0 0
2018-02-25 07:00:00 0 6748 -6.05 -6.36 -5.72 0 0 0
2018-02-25 08:00:00 0 6748 -6.5 -6.6 -6.36 0 0 0
2018-02-25 09:00:00 0 6766 -6.49 -6.55 -6.4 0 0 0
2018-02-25 10:00:00 0 7108 -5.98 -6.46 -5.36 0 0 0
2018-02-25 11:00:00 0 7254 -5.08 -5.36 -4.76 0 0 0
2018-02-25 12:00:00 0 7206 -4.55 -4.81 -4.44 0 0 0